createdAt,value
2023-04-26T00:02:00.606Z,6.60
2023-04-26T00:04:29.210Z,6.78
2023-04-26T00:06:57.336Z,6.43
2023-04-26T00:09:24.813Z,7.35
2023-04-26T00:11:52.427Z,6.53
2023-04-26T00:14:19.785Z,7.00
2023-04-26T00:16:47.452Z,6.60
2023-04-26T00:19:16.020Z,6.97
2023-04-26T00:21:43.385Z,6.00
2023-04-26T00:24:10.768Z,6.43
2023-04-26T00:26:38.385Z,6.18
2023-04-26T00:29:06.017Z,7.15
2023-04-26T00:31:33.548Z,6.15
2023-04-26T00:34:01.269Z,5.95
2023-04-26T00:36:28.621Z,6.25
2023-04-26T00:38:55.982Z,6.30
2023-04-26T00:41:24.264Z,6.60
2023-04-26T00:43:51.626Z,6.60
2023-04-26T00:46:19.126Z,6.57
2023-04-26T00:48:47.101Z,6.30
2023-04-26T00:51:14.460Z,6.43
2023-04-26T00:53:41.905Z,6.37
2023-04-26T00:56:09.640Z,6.60
2023-04-26T00:58:37.506Z,5.93
2023-04-26T01:01:04.899Z,6.85
2023-04-26T01:03:32.818Z,6.57
2023-04-26T01:06:01.297Z,6.37
2023-04-26T01:08:28.660Z,6.05
2023-04-26T01:10:58.686Z,6.62
2023-04-26T01:13:26.788Z,6.53
2023-04-26T01:15:54.182Z,5.80
2023-04-26T01:18:21.800Z,6.15
2023-04-26T01:20:52.959Z,5.82
2023-04-26T01:23:20.336Z,5.78
2023-04-26T01:25:48.247Z,5.85
2023-04-26T01:28:15.627Z,6.05
2023-04-26T01:30:43.310Z,6.18
2023-04-26T01:33:11.468Z,5.60
2023-04-26T01:35:38.827Z,6.30
2023-04-26T01:38:06.243Z,5.78
2023-04-26T01:40:33.847Z,5.85
2023-04-26T01:43:03.169Z,5.93
2023-04-26T01:45:31.054Z,5.95
2023-04-26T01:48:13.424Z,6.03
2023-04-26T01:50:41.003Z,6.15
2023-04-26T01:53:08.356Z,6.25
2023-04-26T01:55:36.099Z,5.40
2023-04-26T01:58:03.691Z,6.35
2023-04-26T02:00:31.057Z,6.37
2023-04-26T02:02:58.743Z,5.97
2023-04-26T02:05:26.293Z,6.32
2023-04-26T02:07:53.720Z,5.97
2023-04-26T02:10:21.442Z,5.82
2023-04-26T02:12:48.820Z,6.18
2023-04-26T02:15:16.274Z,6.62
2023-04-26T02:17:43.994Z,5.40
2023-04-26T02:20:11.796Z,5.40
2023-04-26T02:22:39.164Z,6.07
2023-04-26T02:25:07.400Z,6.03
2023-04-26T02:27:35.017Z,5.75
2023-04-26T02:30:02.399Z,5.85
2023-04-26T02:32:30.057Z,5.55
2023-04-26T02:34:57.922Z,6.10
2023-04-26T02:37:26.764Z,5.80
2023-04-26T02:39:54.177Z,6.45
2023-04-26T02:42:22.004Z,6.50
2023-04-26T02:44:49.380Z,6.25
2023-04-26T02:47:16.930Z,5.55
2023-04-26T02:49:44.736Z,7.18
2023-04-26T02:52:12.060Z,6.35
2023-04-26T02:54:39.600Z,5.97
2023-04-26T02:57:08.269Z,6.37
2023-04-26T02:59:35.659Z,6.55
2023-04-26T03:02:03.031Z,6.65
2023-04-26T03:04:33.944Z,6.93
2023-04-26T03:07:01.935Z,6.70
2023-04-26T03:09:29.329Z,6.20
2023-04-26T03:11:57.078Z,7.43
2023-04-26T03:14:24.516Z,7.18
2023-04-26T03:16:52.130Z,8.50
2023-04-26T03:19:20.006Z,7.75
2023-04-26T03:21:47.579Z,7.00
2023-04-26T03:24:14.979Z,7.35
2023-04-26T03:26:42.628Z,7.35
2023-04-26T03:29:10.180Z,7.72
2023-04-26T03:31:37.725Z,7.82
2023-04-26T03:34:05.508Z,7.53
2023-04-26T03:36:32.894Z,7.62
2023-04-26T03:39:00.260Z,7.80
2023-04-26T03:41:27.890Z,7.62
2023-04-26T03:43:55.764Z,7.93
2023-04-26T03:46:24.184Z,8.67
2023-04-26T03:48:52.243Z,7.78
2023-04-26T03:51:19.917Z,7.70
2023-04-26T03:53:48.744Z,7.35
2023-04-26T03:56:17.041Z,7.65
2023-04-26T03:58:44.494Z,7.68
2023-04-26T04:01:11.913Z,8.05
2023-04-26T04:03:41.289Z,6.97
2023-04-26T04:06:09.564Z,7.55
2023-04-26T04:08:36.950Z,7.50
2023-04-26T04:11:04.636Z,7.35
2023-04-26T04:13:32.695Z,7.83
2023-04-26T04:16:00.167Z,7.43
2023-04-26T04:18:27.833Z,7.22
2023-04-26T04:20:55.222Z,8.02
2023-04-26T04:23:22.845Z,7.75
2023-04-26T04:25:51.616Z,7.72
2023-04-26T04:28:20.434Z,7.60
2023-04-26T04:30:48.129Z,8.40
2023-04-26T04:33:17.666Z,7.15
2023-04-26T04:35:45.427Z,7.55
2023-04-26T04:38:13.216Z,7.10
2023-04-26T04:40:41.287Z,7.62
2023-04-26T04:43:09.041Z,7.00
2023-04-26T04:45:37.345Z,8.05
2023-04-26T04:48:05.538Z,7.37
2023-04-26T04:50:33.063Z,6.95
2023-04-26T04:53:00.590Z,7.55
2023-04-26T04:55:28.689Z,7.10
2023-04-26T04:57:56.437Z,7.22
2023-04-26T05:00:24.106Z,6.53
2023-04-26T05:02:52.307Z,6.35
2023-04-26T05:05:20.521Z,8.00
2023-04-26T05:07:48.002Z,7.85
2023-04-26T05:10:16.276Z,6.28
2023-04-26T05:12:43.679Z,7.07
2023-04-26T05:15:11.164Z,6.43
2023-04-26T05:17:38.872Z,6.28
2023-04-26T05:20:08.045Z,7.65
2023-04-26T05:22:36.908Z,7.30
2023-04-26T05:25:05.535Z,6.65
2023-04-26T05:27:33.121Z,6.47
2023-04-26T05:30:05.906Z,6.00
2023-04-26T05:32:33.815Z,7.90
2023-04-26T05:35:01.824Z,7.43
2023-04-26T05:37:30.724Z,6.35
2023-04-26T05:39:58.555Z,8.25
2023-04-26T05:42:27.468Z,8.13
2023-04-26T05:44:59.031Z,6.47
2023-04-26T05:47:27.821Z,6.47
2023-04-26T05:49:55.146Z,7.55
2023-04-26T05:52:22.492Z,6.72
2023-04-26T05:54:50.459Z,7.22
2023-04-26T05:57:19.039Z,8.00
2023-04-26T05:59:46.747Z,6.80
2023-04-26T06:02:14.588Z,6.93
2023-04-26T06:04:42.446Z,7.40
2023-04-26T06:07:10.470Z,7.05
2023-04-26T06:09:37.857Z,7.65
2023-04-26T06:12:05.874Z,7.82
2023-04-26T06:14:33.927Z,8.07
2023-04-26T06:17:01.698Z,8.32
2023-04-26T06:19:29.569Z,8.30
2023-04-26T06:21:57.316Z,7.85
2023-04-26T06:24:26.075Z,8.15
2023-04-26T06:26:53.934Z,8.52
2023-04-26T06:29:21.571Z,8.55
2023-04-26T06:31:49.030Z,9.50
2023-04-26T06:34:18.267Z,9.00
2023-04-26T06:36:46.241Z,9.75
2023-04-26T06:39:13.829Z,9.85
2023-04-26T06:41:43.452Z,10.02
2023-04-26T06:44:11.415Z,9.82
2023-04-26T06:46:42.402Z,10.15
2023-04-26T06:49:10.528Z,9.60
2023-04-26T06:51:37.908Z,9.23
2023-04-26T06:54:05.545Z,9.55
2023-04-26T06:56:33.057Z,8.88
2023-04-26T06:59:04.431Z,9.35
2023-04-26T07:01:35.488Z,10.43
2023-04-26T07:04:03.835Z,9.45
2023-04-26T07:06:31.619Z,9.38
2023-04-26T07:09:00.724Z,9.77
2023-04-26T07:11:28.987Z,10.02
2023-04-26T07:13:57.101Z,9.73
2023-04-26T07:16:24.662Z,9.68
2023-04-26T07:18:52.954Z,9.43
2023-04-26T07:21:20.594Z,9.00
2023-04-26T07:23:47.955Z,9.15
2023-04-26T07:26:15.365Z,10.70
2023-04-26T07:28:43.094Z,8.98
2023-04-26T07:31:11.066Z,9.05
2023-04-26T07:33:38.894Z,8.82
2023-04-26T07:36:06.756Z,9.32
2023-04-26T07:38:34.087Z,9.85
2023-04-26T07:41:01.475Z,10.05
2023-04-26T07:43:30.234Z,9.93
2023-04-26T07:46:03.480Z,9.02
2023-04-26T07:48:31.197Z,10.15
2023-04-26T07:51:06.680Z,10.13
2023-04-26T07:53:34.351Z,9.07
2023-04-26T07:56:01.851Z,9.63
2023-04-26T07:58:29.222Z,9.10
2023-04-26T08:00:56.908Z,8.05
2023-04-26T08:03:24.779Z,8.60
2023-04-26T08:05:53.996Z,7.80
2023-04-26T08:08:22.394Z,8.32
2023-04-26T08:10:50.018Z,7.90
2023-04-26T08:13:17.396Z,9.48
2023-04-26T08:15:44.758Z,8.27
2023-04-26T08:18:12.458Z,8.35
2023-04-26T08:20:39.852Z,8.73
2023-04-26T08:23:07.218Z,8.52
2023-04-26T08:25:34.989Z,8.95
2023-04-26T08:28:02.622Z,8.32
2023-04-26T08:30:30.170Z,8.88
2023-04-26T08:32:57.857Z,8.40
2023-04-26T08:35:25.553Z,8.80
2023-04-26T08:37:53.478Z,8.52
2023-04-26T08:40:24.783Z,8.55
2023-04-26T08:42:53.531Z,7.95
2023-04-26T08:45:21.454Z,7.60
2023-04-26T08:47:53.650Z,7.55
2023-04-26T08:50:22.413Z,7.50
2023-04-26T08:52:51.368Z,9.02
2023-04-26T08:55:20.283Z,7.82
2023-04-26T08:57:48.774Z,8.90
2023-04-26T09:00:16.901Z,8.23
2023-04-26T09:02:52.039Z,8.85
2023-04-26T09:05:27.184Z,9.18
2023-04-26T09:07:58.062Z,8.43
2023-04-26T09:10:26.379Z,8.43
2023-04-26T09:12:53.920Z,8.90
2023-04-26T09:15:22.767Z,7.85
2023-04-26T09:17:51.764Z,8.38
2023-04-26T09:20:22.838Z,8.32
2023-04-26T09:23:03.597Z,8.40
2023-04-26T09:25:33.723Z,9.70
2023-04-26T09:28:01.925Z,9.50
2023-04-26T09:30:29.381Z,9.15
2023-04-26T09:33:06.980Z,10.20
2023-04-26T09:35:41.833Z,9.73
2023-04-26T09:38:16.607Z,9.35
2023-04-26T09:40:50.990Z,9.65
2023-04-26T09:43:19.779Z,10.05
2023-04-26T09:45:49.474Z,10.32
2023-04-26T09:48:17.866Z,9.52
2023-04-26T09:50:48.171Z,9.68
2023-04-26T09:53:37.226Z,10.23
2023-04-26T09:56:10.723Z,9.43
2023-04-26T09:58:39.641Z,10.55
2023-04-26T10:01:10.623Z,10.15
2023-04-26T10:03:38.779Z,9.75
2023-04-26T10:06:06.686Z,9.90
2023-04-26T10:08:34.269Z,10.88
2023-04-26T10:11:04.213Z,9.32
2023-04-26T10:13:34.914Z,10.48
2023-04-26T10:16:02.895Z,10.13
2023-04-26T10:18:31.475Z,9.98
2023-04-26T10:21:07.702Z,9.40
2023-04-26T10:26:03.346Z,10.32
2023-04-26T10:28:46.198Z,9.45
2023-04-26T10:31:13.794Z,8.50
2023-04-26T10:33:41.297Z,8.82
2023-04-26T10:36:12.689Z,8.85
2023-04-26T10:38:59.640Z,9.80
2023-04-26T10:41:37.071Z,9.70
2023-04-26T10:44:42.711Z,9.05
2023-04-26T10:47:33.473Z,8.90
2023-04-26T10:50:09.194Z,8.75
2023-04-26T10:52:38.020Z,9.40
2023-04-26T10:55:06.781Z,9.18
2023-04-26T10:57:50.606Z,9.48
2023-04-26T11:00:32.092Z,9.30
2023-04-26T11:03:03.503Z,8.90
2023-04-26T11:05:35.858Z,8.07
2023-04-26T11:08:16.256Z,8.68
2023-04-26T11:10:49.691Z,9.00
2023-04-26T11:13:17.226Z,8.65
2023-04-26T11:15:45.048Z,9.25
2023-04-26T11:18:12.437Z,10.20
2023-04-26T11:20:39.776Z,9.40
2023-04-26T11:23:08.138Z,9.48
2023-04-26T11:25:35.577Z,9.63
2023-04-26T11:28:03.332Z,8.93
2023-04-26T11:30:31.834Z,9.52
2023-04-26T11:33:00.218Z,9.07
2023-04-26T11:35:29.544Z,9.70
2023-04-26T11:38:00.839Z,9.00
2023-04-26T11:40:29.712Z,9.13
2023-04-26T11:43:05.961Z,9.20
2023-04-26T11:45:34.064Z,9.32
2023-04-26T11:48:02.708Z,10.00
2023-04-26T11:50:33.645Z,9.50
2023-04-26T11:53:02.092Z,8.85
2023-04-26T11:55:32.067Z,9.00
2023-04-26T11:57:59.984Z,9.20
2023-04-26T12:00:27.616Z,8.77
2023-04-26T12:02:57.356Z,8.77
2023-04-26T12:05:26.210Z,8.93
2023-04-26T12:07:55.635Z,8.48
2023-04-26T12:10:28.125Z,8.60
2023-04-26T12:12:58.557Z,8.75
2023-04-26T12:15:31.284Z,7.80
2023-04-26T12:17:58.594Z,8.93
2023-04-26T12:20:33.602Z,8.23
2023-04-26T12:23:11.922Z,8.25
2023-04-26T12:25:39.985Z,8.30
2023-04-26T12:28:12.649Z,7.55
2023-04-26T12:30:40.852Z,7.75
2023-04-26T12:33:16.933Z,9.27
2023-04-26T12:35:46.299Z,8.30
2023-04-26T12:38:14.215Z,8.82
2023-04-26T12:40:51.248Z,9.00
2023-04-26T12:43:19.899Z,8.73
2023-04-26T12:45:47.306Z,9.73
2023-04-26T12:48:15.637Z,8.10
2023-04-26T12:50:44.238Z,9.07
2023-04-26T12:53:11.836Z,8.32
2023-04-26T12:55:39.726Z,8.20
2023-04-26T12:58:07.360Z,7.82
2023-04-26T13:00:34.754Z,8.50
2023-04-26T13:03:02.545Z,7.93
2023-04-26T13:05:30.623Z,7.60
2023-04-26T13:07:58.010Z,7.62
2023-04-26T13:10:25.462Z,8.02
2023-04-26T13:12:53.943Z,8.00
2023-04-26T13:15:21.646Z,7.70
2023-04-26T13:17:49.139Z,8.40
2023-04-26T13:20:16.804Z,8.70
2023-04-26T13:22:44.167Z,8.07
2023-04-26T13:25:13.180Z,9.05
2023-04-26T13:27:41.136Z,8.40
2023-04-26T13:30:09.114Z,8.88
2023-04-26T13:32:36.860Z,9.10
2023-04-26T13:35:04.766Z,9.20
2023-04-26T13:37:32.858Z,8.07
2023-04-26T13:40:00.354Z,8.40
2023-04-26T13:42:28.195Z,8.00
2023-04-26T13:44:55.553Z,8.02
2023-04-26T13:47:23.028Z,8.32
2023-04-26T13:49:51.146Z,8.70
2023-04-26T13:52:18.584Z,9.20
2023-04-26T13:54:45.951Z,10.18
2023-04-26T13:57:13.543Z,8.55
2023-04-26T13:59:40.980Z,7.87
2023-04-26T14:02:08.471Z,7.80
2023-04-26T14:04:36.613Z,8.18
2023-04-26T14:07:04.269Z,8.23
2023-04-26T14:09:31.861Z,8.52
2023-04-26T14:12:08.039Z,9.02
2023-04-26T14:14:37.009Z,8.93
2023-04-26T14:17:04.628Z,8.02
2023-04-26T14:19:32.024Z,7.75
2023-04-26T14:21:59.518Z,8.35
2023-04-26T14:24:27.295Z,8.23
2023-04-26T14:26:54.705Z,8.05
2023-04-26T14:29:22.061Z,8.23
2023-04-26T14:31:50.418Z,7.97
2023-04-26T14:34:17.830Z,8.98
2023-04-26T14:36:45.182Z,8.38
2023-04-26T14:39:12.768Z,8.38
2023-04-26T14:41:40.829Z,8.57
2023-04-26T14:44:08.202Z,8.95
2023-04-26T14:46:35.988Z,9.20
2023-04-26T14:49:03.416Z,7.45
2023-04-26T14:51:31.992Z,7.97
2023-04-26T14:53:59.582Z,7.53
2023-04-26T14:56:26.925Z,8.65
2023-04-26T14:58:54.283Z,7.50
2023-04-26T15:01:21.910Z,7.37
2023-04-26T15:03:49.435Z,7.18
2023-04-26T15:06:16.912Z,7.25
2023-04-26T15:08:44.635Z,8.20
2023-04-26T15:11:11.954Z,6.70
2023-04-26T15:13:39.280Z,7.70
2023-04-26T15:16:08.029Z,7.45
2023-04-26T15:18:35.665Z,7.32
2023-04-26T15:21:03.026Z,7.10
2023-04-26T15:23:30.638Z,7.20
2023-04-26T15:26:02.221Z,7.62
2023-04-26T15:28:29.626Z,8.93
2023-04-26T15:31:04.158Z,8.30
2023-04-26T15:33:31.730Z,8.20
2023-04-26T15:35:59.353Z,8.05
2023-04-26T15:38:26.699Z,7.70
2023-04-26T15:40:54.076Z,9.20
2023-04-26T15:43:22.092Z,8.13
2023-04-26T15:45:49.649Z,8.38
2023-04-26T15:48:17.511Z,8.50
2023-04-26T15:50:46.183Z,7.45
2023-04-26T15:53:13.605Z,7.72
2023-04-26T15:55:41.566Z,8.27
2023-04-26T15:58:09.223Z,8.45
2023-04-26T16:00:36.702Z,8.57
2023-04-26T16:03:04.540Z,8.57
2023-04-26T16:05:32.065Z,7.70
2023-04-26T16:08:03.801Z,8.00
2023-04-26T16:10:31.433Z,7.18
2023-04-26T16:12:58.915Z,7.45
2023-04-26T16:15:26.426Z,7.87
2023-04-26T16:17:54.041Z,7.35
2023-04-26T16:20:21.564Z,8.00
2023-04-26T16:22:49.892Z,8.10
2023-04-26T16:25:17.602Z,8.10
2023-04-26T16:27:44.948Z,8.40
2023-04-26T16:30:12.516Z,8.70
2023-04-26T16:32:40.229Z,8.63
2023-04-26T16:35:08.870Z,8.18
2023-04-26T16:37:39.256Z,8.32
2023-04-26T16:40:07.890Z,8.48
2023-04-26T16:42:35.219Z,8.48
2023-04-26T16:45:02.782Z,8.40
2023-04-26T16:47:30.978Z,9.20
2023-04-26T16:49:58.600Z,8.93
2023-04-26T16:52:25.985Z,8.85
2023-04-26T16:54:53.571Z,8.63
2023-04-26T16:57:21.056Z,8.15
2023-04-26T16:59:48.397Z,8.30
2023-04-26T17:02:16.458Z,9.75
2023-04-26T17:04:44.094Z,8.80
2023-04-26T17:07:12.737Z,8.32
2023-04-26T17:09:40.405Z,9.25
2023-04-26T17:12:07.985Z,8.38
2023-04-26T17:14:35.309Z,8.35
2023-04-26T17:17:02.947Z,8.15
2023-04-26T17:19:30.323Z,7.80
2023-04-26T17:21:57.696Z,8.07
2023-04-26T17:24:25.440Z,9.43
2023-04-26T17:26:52.842Z,7.90
2023-04-26T17:29:20.727Z,8.50
2023-04-26T17:31:48.385Z,7.68
2023-04-26T17:34:16.010Z,8.30
2023-04-26T17:36:45.548Z,8.35
2023-04-26T17:39:13.182Z,8.32
2023-04-26T17:41:40.673Z,7.95
2023-04-26T17:44:07.998Z,8.68
2023-04-26T17:46:35.758Z,8.05
2023-04-26T17:49:03.279Z,8.20
2023-04-26T17:51:30.743Z,7.40
2023-04-26T17:53:58.374Z,8.02
2023-04-26T17:56:25.734Z,8.68
2023-04-26T17:58:53.086Z,7.62
2023-04-26T18:01:21.246Z,8.00
2023-04-26T18:03:49.267Z,7.93
2023-04-26T18:06:19.348Z,9.40
2023-04-26T18:08:47.122Z,9.75
2023-04-26T18:11:14.838Z,9.18
2023-04-26T18:13:42.189Z,8.50
2023-04-26T18:16:09.584Z,7.87
2023-04-26T18:18:37.194Z,8.60
2023-04-26T18:21:04.604Z,8.43
2023-04-26T18:23:31.962Z,7.97
2023-04-26T18:25:59.587Z,7.80
2023-04-26T18:28:26.966Z,8.20
2023-04-26T18:30:58.020Z,8.85
2023-04-26T18:33:26.299Z,8.40
2023-04-26T18:35:53.700Z,8.43
2023-04-26T18:38:21.078Z,8.23
2023-04-26T18:40:49.770Z,7.93
2023-04-26T18:43:17.266Z,7.95
2023-04-26T18:45:44.749Z,7.25
2023-04-26T18:48:12.453Z,7.95
2023-04-26T18:50:39.833Z,8.27
2023-04-26T18:53:07.167Z,8.40
2023-04-26T18:55:34.787Z,8.50
2023-04-26T18:58:02.215Z,9.02
2023-04-26T19:00:29.564Z,9.30
2023-04-26T19:02:57.377Z,9.30
2023-04-26T19:05:25.059Z,10.38
2023-04-26T19:07:53.346Z,9.02
2023-04-26T19:10:21.380Z,9.93
2023-04-26T19:12:48.918Z,9.73
2023-04-26T19:15:16.679Z,9.50
2023-04-26T19:17:44.403Z,10.20
2023-04-26T19:20:13.984Z,9.43
2023-04-26T19:22:47.490Z,9.77
2023-04-26T19:25:15.108Z,9.63
2023-04-26T19:27:42.454Z,10.38
2023-04-26T19:30:10.092Z,9.18
2023-04-26T19:32:37.770Z,9.07
2023-04-26T19:35:06.158Z,9.40
2023-04-26T19:37:33.582Z,10.40
2023-04-26T19:40:01.217Z,9.77
2023-04-26T19:42:28.598Z,9.30
2023-04-26T19:44:56.210Z,9.13
2023-04-26T19:47:23.863Z,9.07
2023-04-26T19:49:53.026Z,9.27
2023-04-26T19:52:20.432Z,8.40
2023-04-26T19:54:48.013Z,8.27
2023-04-26T19:57:15.354Z,9.02
2023-04-26T19:59:42.705Z,8.38
2023-04-26T20:02:10.299Z,8.02
2023-04-26T20:04:37.936Z,7.93
2023-04-26T20:07:05.524Z,8.80
2023-04-26T20:09:32.900Z,7.87
2023-04-26T20:12:00.714Z,9.05
2023-04-26T20:14:30.182Z,8.60
2023-04-26T20:17:02.215Z,8.75
2023-04-26T20:19:30.627Z,8.98
2023-04-26T20:21:58.002Z,9.18
2023-04-26T20:24:27.802Z,8.75
2023-04-26T20:26:56.478Z,8.82
2023-04-26T20:29:24.120Z,10.70
2023-04-26T20:31:51.865Z,11.98
2023-04-26T20:34:19.532Z,12.35
2023-04-26T20:36:47.411Z,10.38
2023-04-26T20:39:14.805Z,9.77
2023-04-26T20:41:42.650Z,10.27
2023-04-26T20:44:10.291Z,9.98
2023-04-26T20:46:37.671Z,9.23
2023-04-26T20:49:06.713Z,9.25
2023-04-26T20:51:34.308Z,9.50
2023-04-26T20:54:01.707Z,9.18
2023-04-26T20:56:29.347Z,8.93
2023-04-26T20:58:57.659Z,8.90
2023-04-26T21:01:25.023Z,8.68
2023-04-26T21:03:52.888Z,9.27
2023-04-26T21:06:20.340Z,9.18
2023-04-26T21:08:47.786Z,9.68
2023-04-26T21:11:15.447Z,9.27
2023-04-26T21:13:42.847Z,8.65
2023-04-26T21:16:10.199Z,9.23
2023-04-26T21:18:37.881Z,9.02
2023-04-26T21:21:05.309Z,9.10
2023-04-26T21:23:33.197Z,9.77
2023-04-26T21:26:00.902Z,9.27
2023-04-26T21:28:28.278Z,9.55
2023-04-26T21:31:04.601Z,8.88
2023-04-26T21:36:00.458Z,9.32
2023-04-26T21:38:28.114Z,9.15
2023-04-26T21:40:55.742Z,9.50
2023-04-26T21:43:23.144Z,9.45
2023-04-26T21:45:52.301Z,9.73
2023-04-26T21:48:19.912Z,9.30
2023-04-26T21:50:50.551Z,9.07
2023-04-26T21:53:17.916Z,9.30
2023-04-26T21:55:50.813Z,8.70
2023-04-26T21:58:19.085Z,8.98
2023-04-26T22:00:46.940Z,8.85
2023-04-26T22:03:14.861Z,9.27
2023-04-26T22:05:42.348Z,9.50
2023-04-26T22:08:09.746Z,9.95
2023-04-26T22:10:38.761Z,10.48
2023-04-26T22:13:06.297Z,10.00
2023-04-26T22:15:33.649Z,9.65
2023-04-26T22:18:01.574Z,9.23
2023-04-26T22:20:29.960Z,9.02
2023-04-26T22:22:57.348Z,9.80
2023-04-26T22:25:25.197Z,8.68
2023-04-26T22:27:53.410Z,8.93
2023-04-26T22:30:25.368Z,9.90
2023-04-26T22:32:55.554Z,9.15
2023-04-26T22:35:23.742Z,9.32
2023-04-26T22:37:51.286Z,8.82
2023-04-26T22:40:18.926Z,9.07
2023-04-26T22:42:46.493Z,9.40
2023-04-26T22:45:13.925Z,9.63
2023-04-26T22:47:41.669Z,9.60
2023-04-26T22:50:09.414Z,9.00
2023-04-26T22:52:36.842Z,9.25
2023-04-26T22:55:04.632Z,9.32
2023-04-26T22:57:32.040Z,9.30
2023-04-26T22:59:59.416Z,9.15
2023-04-26T23:02:27.135Z,9.20
2023-04-26T23:04:54.739Z,9.40
2023-04-26T23:07:22.156Z,9.35
2023-04-26T23:09:49.769Z,9.57
2023-04-26T23:12:20.190Z,10.27
2023-04-26T23:14:48.638Z,10.07
2023-04-26T23:17:16.577Z,9.67
2023-04-26T23:19:43.949Z,9.63
2023-04-26T23:22:11.287Z,9.40
2023-04-26T23:24:38.884Z,9.60
2023-04-26T23:27:06.230Z,9.70
2023-04-26T23:29:33.610Z,9.40
2023-04-26T23:32:01.224Z,9.48
2023-04-26T23:34:28.598Z,9.03
2023-04-26T23:36:55.948Z,9.10
2023-04-26T23:39:23.765Z,9.10
2023-04-26T23:41:51.149Z,9.33
2023-04-26T23:44:18.505Z,8.95
2023-04-26T23:46:46.319Z,8.67
2023-04-26T23:49:13.871Z,9.18
2023-04-26T23:51:41.445Z,9.00
2023-04-26T23:54:09.066Z,9.02
2023-04-26T23:56:36.572Z,9.20
2023-04-26T23:59:03.984Z,8.98
